Sunday, November 18, 2018, 2:40 PM GMT
Back to Local

CWST, La Pocatiere

Location: , , Canada Lat: 47.35
Local Time: 2:40 PM GMT (14:40 GMT) Lon: -70.033
Time Zone: GMT Elev: 101 ft

Show me the last for .
Show Decoded

2018-11-18 14:00 METAR CWST 181400Z AUTO 12003KT M06/M11 RMK AO1 SOG 03 1021 SLP264 T10631106 =
2018-11-18 13:00 METAR CWST 181300Z AUTO 07003KT M07/M10 RMK AO1 SOG 03 3027 SLP261 T10671104 =
2018-11-18 12:00 METAR CWST 181200Z AUTO 02004KT M06/M10 RMK AO1 SOG 03 3024 SLP251 T10641104 =
2018-11-18 11:00 METAR CWST 181100Z AUTO 20002KT M06/M10 RMK AO1 SOG 03 3021 SLP242 T10571095 =
2018-11-18 10:00 METAR CWST 181000Z AUTO 31005KT M05/M11 RMK AO1 SOG 03 3018 SLP234 T10521113 =
2018-11-18 09:00 METAR CWST 180900Z AUTO 30007KT M05/M12 RMK AO1 SOG 03 1018 SLP227 T10511120 =
2018-11-18 08:00 METAR CWST 180800Z AUTO 30004KT M05/M11 RMK AO1 SOG 03 3017 SLP221 T10471108 =
2018-11-18 07:00 METAR CWST 180700Z AUTO 30009KT M04/M10 RMK AO1 SOG 03 1020 SLP215 T10421103 =
2018-11-18 06:00 METAR CWST 180600Z AUTO 30009KT M04/M10 RMK AO1 SOG 03 1022 SLP208 T10401098 =
2018-11-18 05:00 METAR CWST 180500Z AUTO 32006KT M04/M10 RMK AO1 SOG 03 3023 SLP204 T10361097 =
2018-11-18 04:00 METAR CWST 180400Z AUTO 02002KT M05/M10 RMK AO1 SOG 03 2024 SLP196 T10451097 =
2018-11-18 03:00 METAR CWST 180300Z AUTO 35003KT M05/M09 RMK AO1 SOG 03 1025 SLP187 T10481093 =
2018-11-18 02:00 METAR CWST 180200Z AUTO 33006KT M02/M08 RMK AO1 SOG 03 1032 SLP181 T10231080 =
2018-11-18 01:00 METAR CWST 180100Z AUTO 29005KT M03/M08 RMK AO1 SOG 03 1035 SLP172 T10261082 =
2018-11-18 00:00 METAR CWST 180000Z AUTO 29005KT M02/M08 RMK AO1 SOG 03 3036 SLP162 T10191081 =
2018-11-17 23:00 METAR CWST 172300Z AUTO 27012KT M01/M07 RMK AO1 SOG 03 3033 PK WND 30019/2204
                 SLP149 T10111071 =
2018-11-17 22:00 METAR CWST 172200Z AUTO 30014G19KT M00/M06 RMK AO1 SOG 03 3026 PK WND 24019/2130
                 SLP137 T10011057 =
2018-11-17 21:00 METAR CWST 172100Z AUTO 23013KT M00/M02 RMK AO1 SOG 03 3020 PK WND 22020/2035
                 SLP125 T10041021 =
2018-11-17 20:00 METAR CWST 172000Z AUTO 23014G20KT M00/M02 RMK AO1 SOG 03 3014 PK WND 22023/1901
                 SLP115 T10031022 =
2018-11-17 19:00 METAR CWST 171900Z AUTO 23017G23KT M00/M02 RMK AO1 SOG 03 3011 PK WND 22025/1841
                 SLP110 T10011024 =
2018-11-17 18:00 METAR CWST 171800Z AUTO 23017KT M00/M03 RMK AO1 SOG 03 3008 PK WND 23023/1723
                 SLP105 T10021027 =
2018-11-17 17:00 METAR CWST 171700Z AUTO 23017G23KT M01/M03 RMK AO1 SOG 03 1012 PK WND 23024/1622
                 SLP101 T10081027 =
2018-11-17 16:00 METAR CWST 171600Z AUTO 23018G25KT M01/M03 RMK AO1 SOG 03 1015 PK WND 22025/1550
                 SLP099 T10101026 =
2018-11-17 15:00 METAR CWST 171500Z AUTO 23016KT M02/M03 RMK AO1 SOG 04 3019 PK WND 22027/1407
                 SLP097 T10221034 =

Support USWX by starting your Amazon purchase here.